createdAt,value
2017-02-15T00:00:53.359Z,-2.16
2017-02-15T00:02:15.861Z,-2.08
2017-02-15T00:03:38.420Z,-2.12
2017-02-15T00:05:00.110Z,-2.18
2017-02-15T00:06:21.447Z,-2.16
2017-02-15T00:07:43.990Z,-2.24
2017-02-15T00:09:06.079Z,-2.23
2017-02-15T00:10:29.090Z,-2.34
2017-02-15T00:11:50.787Z,-2.39
2017-02-15T00:13:13.281Z,-2.49
2017-02-15T00:14:35.371Z,-2.48
2017-02-15T00:15:58.288Z,-2.39
2017-02-15T00:17:20.014Z,-2.5
2017-02-15T00:18:42.202Z,-2.5
2017-02-15T00:20:04.715Z,-2.53
2017-02-15T00:21:27.501Z,-2.64
2017-02-15T00:22:50.400Z,-2.49
2017-02-15T00:24:13.311Z,-2.46
2017-02-15T00:25:35.920Z,-2.46
2017-02-15T00:26:57.886Z,-2.53
2017-02-15T00:28:20.034Z,-2.53
2017-02-15T00:29:41.858Z,-2.48
2017-02-15T00:31:04.364Z,-2.48
2017-02-15T00:32:26.815Z,-2.49
2017-02-15T00:33:49.430Z,-2.61
2017-02-15T00:35:11.921Z,-2.58
2017-02-15T00:36:33.651Z,-2.61
2017-02-15T00:37:55.699Z,-2.66
2017-02-15T00:39:17.841Z,-2.73
2017-02-15T00:40:39.955Z,-2.71
2017-02-15T00:42:02.056Z,-2.71
2017-02-15T00:43:24.092Z,-2.73
2017-02-15T00:44:45.859Z,-2.77
2017-02-15T00:46:08.457Z,-2.82
2017-02-15T00:47:30.946Z,-2.67
2017-02-15T00:48:53.790Z,-2.64
2017-02-15T00:50:16.676Z,-2.67
2017-02-15T00:51:37.970Z,-2.49
2017-02-15T00:52:59.800Z,-2.49
2017-02-15T00:54:21.361Z,-2.5
2017-02-15T00:55:43.535Z,-2.52
2017-02-15T00:57:05.707Z,-2.49
2017-02-15T00:58:27.830Z,-2.5
2017-02-15T00:59:50.235Z,-2.53
2017-02-15T01:01:12.062Z,-2.48
2017-02-15T01:02:34.216Z,-2.5
2017-02-15T01:03:55.711Z,-2.52
2017-02-15T01:05:18.507Z,-2.64
2017-02-15T01:06:41.159Z,-2.5
2017-02-15T01:08:02.456Z,-2.53
2017-02-15T01:09:25.391Z,-2.43
2017-02-15T01:10:48.240Z,-2.34
2017-02-15T01:12:10.740Z,-2.34
2017-02-15T01:13:33.255Z,-2.21
2017-02-15T01:14:56.143Z,-2.32
2017-02-15T01:16:18.494Z,-2.27
2017-02-15T01:17:40.599Z,-2.27
2017-02-15T01:19:02.479Z,-2.39
2017-02-15T01:20:24.995Z,-2.49
2017-02-15T01:21:47.045Z,-2.55
2017-02-15T01:23:09.547Z,-2.66
2017-02-15T01:24:31.650Z,-2.73
2017-02-15T01:25:54.280Z,-2.81
2017-02-15T01:27:16.809Z,-2.81
2017-02-15T01:28:38.541Z,-2.84
2017-02-15T01:30:01.058Z,-2.82
2017-02-15T01:31:23.571Z,-2.88
2017-02-15T01:32:45.126Z,-2.91
2017-02-15T01:34:07.635Z,-2.88
2017-02-15T01:35:29.774Z,-2.86
2017-02-15T01:36:52.321Z,-2.88
2017-02-15T01:38:13.978Z,-2.88
2017-02-15T01:39:36.517Z,-2.96
2017-02-15T01:40:58.648Z,-3
2017-02-15T01:42:20.334Z,-2.99
2017-02-15T01:43:42.281Z,-2.92
2017-02-15T01:45:04.790Z,-3.05
2017-02-15T01:46:26.120Z,-3.02
2017-02-15T01:47:48.607Z,-3.03
2017-02-15T01:49:10.972Z,-2.94
2017-02-15T01:50:33.501Z,-3.02
2017-02-15T01:51:55.670Z,-2.99
2017-02-15T01:53:17.802Z,-2.97
2017-02-15T01:54:40.212Z,-2.99
2017-02-15T01:56:01.918Z,-2.99
2017-02-15T01:57:23.998Z,-2.88
2017-02-15T01:58:45.707Z,-2.84
2017-02-15T02:00:08.108Z,-2.78
2017-02-15T02:01:30.621Z,-2.78
2017-02-15T02:02:53.131Z,-2.86
2017-02-15T02:04:15.242Z,-2.82
2017-02-15T02:05:37.749Z,-2.85
2017-02-15T02:07:00.350Z,-2.91
2017-02-15T02:08:22.843Z,-2.99
2017-02-15T02:09:45.360Z,-3.09
2017-02-15T02:11:07.887Z,-3.15
2017-02-15T02:12:29.593Z,-3.15
2017-02-15T02:13:51.701Z,-3.1
2017-02-15T02:15:13.458Z,-2.97
2017-02-15T02:16:35.498Z,-3.02
2017-02-15T02:17:57.607Z,-2.99
2017-02-15T02:19:20.541Z,-3.02
2017-02-15T02:20:43.030Z,-2.97
2017-02-15T02:22:05.451Z,-2.96
2017-02-15T02:23:27.947Z,-2.99
2017-02-15T02:24:50.447Z,-2.82
2017-02-15T02:26:12.946Z,-2.84
2017-02-15T02:27:35.031Z,-2.94
2017-02-15T02:28:56.386Z,-3
2017-02-15T02:30:18.186Z,-2.94
2017-02-15T02:31:39.587Z,-3
2017-02-15T02:33:02.140Z,-3.02
2017-02-15T02:34:24.713Z,-3.1
2017-02-15T02:35:46.087Z,-3.12
2017-02-15T02:37:07.796Z,-3.23
2017-02-15T02:38:30.206Z,-3.28
2017-02-15T02:39:52.687Z,-3.3
2017-02-15T02:41:14.965Z,-3.31
2017-02-15T02:42:37.046Z,-3.42
2017-02-15T02:43:59.876Z,-3.38
2017-02-15T02:45:21.633Z,-3.43
2017-02-15T02:46:43.328Z,-3.39
2017-02-15T02:48:05.416Z,-3.3
2017-02-15T02:49:27.917Z,-3.25
2017-02-15T02:50:49.666Z,-3.28
2017-02-15T02:52:11.364Z,-3.28
2017-02-15T02:53:33.893Z,-3.28
2017-02-15T02:54:56.227Z,-3.35
2017-02-15T02:56:17.978Z,-3.3
2017-02-15T02:57:40.071Z,-3.33
2017-02-15T02:59:02.669Z,-3.35
2017-02-15T03:00:24.316Z,-3.39
2017-02-15T03:01:46.104Z,-3.36
2017-02-15T03:03:07.405Z,-3.42
2017-02-15T03:04:29.949Z,-3.42
2017-02-15T03:05:52.410Z,-3.42
2017-02-15T03:07:15.052Z,-3.36
2017-02-15T03:08:35.958Z,-3.38
2017-02-15T03:09:58.558Z,-3.41
2017-02-15T03:11:20.647Z,-3.39
2017-02-15T03:12:43.259Z,-3.35
2017-02-15T03:14:05.498Z,-3.31
2017-02-15T03:15:27.244Z,-3.23
2017-02-15T03:16:50.028Z,-3.18
2017-02-15T03:18:11.756Z,-3.28
2017-02-15T03:19:34.265Z,-3.28
2017-02-15T03:20:56.428Z,-3.27
2017-02-15T03:22:19.633Z,-3.28
2017-02-15T03:23:42.120Z,-3.15
2017-02-15T03:25:03.802Z,-2.99
2017-02-15T03:26:25.487Z,-2.79
2017-02-15T03:27:47.206Z,-2.78
2017-02-15T03:29:09.702Z,-2.91
2017-02-15T03:30:31.399Z,-2.96
2017-02-15T03:31:54.432Z,-3.02
2017-02-15T03:33:15.661Z,-3.18
2017-02-15T03:34:37.776Z,-3.15
2017-02-15T03:35:59.887Z,-3.2
2017-02-15T03:37:22.039Z,-3.2
2017-02-15T03:38:44.846Z,-3.28
2017-02-15T03:40:07.834Z,-3.25
2017-02-15T03:41:30.346Z,-3.31
2017-02-15T03:42:53.279Z,-3.35
2017-02-15T03:44:15.309Z,-3.35
2017-02-15T03:45:37.815Z,-3.42
2017-02-15T03:46:59.930Z,-3.41
2017-02-15T03:48:21.634Z,-3.38
2017-02-15T03:49:44.947Z,-3.39
2017-02-15T03:51:07.437Z,-3.39
2017-02-15T03:52:30.031Z,-3.36
2017-02-15T03:53:52.639Z,-3.35
2017-02-15T03:55:15.035Z,-3.36
2017-02-15T03:56:37.540Z,-3.36
2017-02-15T03:57:59.753Z,-3.38
2017-02-15T03:59:22.213Z,-3.41
2017-02-15T04:00:43.753Z,-3.38
2017-02-15T04:02:05.962Z,-3.36
2017-02-15T04:03:28.490Z,-3.41
2017-02-15T04:04:51.001Z,-3.36
2017-02-15T04:06:13.490Z,-3.38
2017-02-15T04:07:35.560Z,-3.48
2017-02-15T04:08:58.075Z,-3.48
2017-02-15T04:10:19.479Z,-3.45
2017-02-15T04:11:42.638Z,-3.36
2017-02-15T04:13:04.752Z,-3.48
2017-02-15T04:14:26.879Z,-3.49
2017-02-15T04:15:49.357Z,-3.46
2017-02-15T04:17:10.596Z,-3.46
2017-02-15T04:18:32.421Z,-3.46
2017-02-15T04:19:55.332Z,-3.66
2017-02-15T04:21:17.841Z,-3.62
2017-02-15T04:22:40.202Z,-3.59
2017-02-15T04:24:02.690Z,-3.59
2017-02-15T04:25:25.213Z,-3.52
2017-02-15T04:26:47.288Z,-3.56
2017-02-15T04:28:09.744Z,-3.63
2017-02-15T04:29:32.237Z,-3.62
2017-02-15T04:30:54.393Z,-3.59
2017-02-15T04:32:16.091Z,-3.64
2017-02-15T04:33:38.631Z,-3.54
2017-02-15T04:34:59.916Z,-3.64
2017-02-15T04:36:22.464Z,-3.63
2017-02-15T04:37:44.971Z,-3.6
2017-02-15T04:39:06.981Z,-3.63
2017-02-15T04:40:29.168Z,-3.63
2017-02-15T04:41:51.270Z,-3.64
2017-02-15T04:43:13.488Z,-3.6
2017-02-15T04:44:35.540Z,-3.69
2017-02-15T04:45:57.655Z,-3.67
2017-02-15T04:47:19.861Z,-3.64
2017-02-15T04:48:41.145Z,-3.53
2017-02-15T04:50:03.893Z,-3.56
2017-02-15T04:51:25.612Z,-3.46
2017-02-15T04:52:47.925Z,-3.42
2017-02-15T04:54:09.235Z,-3.41
2017-02-15T04:55:30.772Z,-3.59
2017-02-15T04:56:53.853Z,-3.52
2017-02-15T04:58:16.128Z,-3.67
2017-02-15T04:59:38.225Z,-3.66
2017-02-15T05:01:01.014Z,-3.72
2017-02-15T05:02:23.132Z,-3.72
2017-02-15T05:03:45.222Z,-3.75
2017-02-15T05:05:07.323Z,-3.67
2017-02-15T05:06:29.024Z,-3.79
2017-02-15T05:07:51.193Z,-3.79
2017-02-15T05:09:13.281Z,-3.75
2017-02-15T05:10:35.060Z,-3.75
2017-02-15T05:11:57.863Z,-3.83
2017-02-15T05:13:19.961Z,-3.78
2017-02-15T05:14:42.499Z,-3.81
2017-02-15T05:16:04.638Z,-3.79
2017-02-15T05:17:26.696Z,-3.75
2017-02-15T05:18:49.182Z,-3.81
2017-02-15T05:20:12.089Z,-3.66
2017-02-15T05:21:33.422Z,-3.52
2017-02-15T05:22:55.813Z,-3.56
2017-02-15T05:24:17.622Z,-3.56
2017-02-15T05:25:40.121Z,-3.54
2017-02-15T05:27:03.063Z,-3.52
2017-02-15T05:28:25.420Z,-3.53
2017-02-15T05:29:47.547Z,-3.57
2017-02-15T05:31:10.048Z,-3.63
2017-02-15T05:32:32.544Z,-3.75
2017-02-15T05:33:54.964Z,-3.76
2017-02-15T05:35:16.268Z,-3.72
2017-02-15T05:36:38.622Z,-3.69
2017-02-15T05:38:00.922Z,-3.81
2017-02-15T05:39:22.946Z,-3.79
2017-02-15T05:40:45.452Z,-3.76
2017-02-15T05:42:07.931Z,-3.72
2017-02-15T05:43:31.804Z,-3.79
2017-02-15T05:44:54.305Z,-3.82
2017-02-15T05:46:16.051Z,-3.71
2017-02-15T05:47:38.605Z,-3.62
2017-02-15T05:49:00.773Z,-3.56
2017-02-15T05:50:23.563Z,-3.43
2017-02-15T05:51:44.460Z,-3.48
2017-02-15T05:53:05.384Z,-3.45
2017-02-15T05:54:26.836Z,-3.43
2017-02-15T05:55:49.664Z,-3.64
2017-02-15T05:57:12.568Z,-3.53
2017-02-15T05:58:35.061Z,-3.52
2017-02-15T05:59:57.983Z,-3.54
2017-02-15T06:01:20.332Z,-3.69
2017-02-15T06:02:42.501Z,-3.52
2017-02-15T06:04:04.193Z,-3.54
2017-02-15T06:05:26.756Z,-3.57
2017-02-15T06:06:49.663Z,-3.53
2017-02-15T06:08:11.797Z,-3.53
2017-02-15T06:09:34.316Z,-3.66
2017-02-15T06:10:55.718Z,-3.67
2017-02-15T06:12:18.525Z,-3.62
2017-02-15T06:13:40.222Z,-3.66
2017-02-15T06:15:02.320Z,-3.64
2017-02-15T06:16:24.459Z,-3.62
2017-02-15T06:17:47.250Z,-3.54
2017-02-15T06:19:08.946Z,-3.53
2017-02-15T06:20:31.458Z,-3.54
2017-02-15T06:21:53.559Z,-3.54
2017-02-15T06:23:15.526Z,-3.57
2017-02-15T06:24:38.331Z,-3.54
2017-02-15T06:26:00.494Z,-3.62
2017-02-15T06:27:21.811Z,-3.63
2017-02-15T06:28:45.007Z,-3.62
2017-02-15T06:30:07.260Z,-3.57
2017-02-15T06:31:29.931Z,-3.64
2017-02-15T06:32:51.633Z,-3.57
2017-02-15T06:34:14.726Z,-3.45
2017-02-15T06:35:36.451Z,-3.48
2017-02-15T06:36:58.582Z,-3.46
2017-02-15T06:38:21.088Z,-3.42
2017-02-15T06:39:43.089Z,-3.45
2017-02-15T06:41:06.011Z,-3.35
2017-02-15T06:42:28.123Z,-3.38
2017-02-15T06:43:50.228Z,-3.48
2017-02-15T06:45:12.739Z,-3.39
2017-02-15T06:46:34.838Z,-3.35
2017-02-15T06:47:56.620Z,-3.35
2017-02-15T06:49:18.334Z,-3.41
2017-02-15T06:50:41.258Z,-3.31
2017-02-15T06:52:03.761Z,-3.27
2017-02-15T06:53:25.473Z,-3.24
2017-02-15T06:54:48.052Z,-3.31
2017-02-15T06:56:10.028Z,-3.31
2017-02-15T06:57:32.953Z,-3.38
2017-02-15T06:58:54.327Z,-3.38
2017-02-15T07:00:16.432Z,-3.31
2017-02-15T07:01:38.013Z,-3.3
2017-02-15T07:03:00.533Z,-3.2
2017-02-15T07:04:23.064Z,-3.15
2017-02-15T07:05:46.069Z,-3.21
2017-02-15T07:07:08.104Z,-3.09
2017-02-15T07:08:30.622Z,-3.03
2017-02-15T07:09:53.264Z,-2.99
2017-02-15T07:11:14.941Z,-2.97
2017-02-15T07:12:36.895Z,-2.91
2017-02-15T07:13:58.591Z,-2.85
2017-02-15T07:15:20.322Z,-2.86
2017-02-15T07:16:42.132Z,-2.84
2017-02-15T07:18:04.484Z,-2.77
2017-02-15T07:19:26.212Z,-2.77
2017-02-15T07:20:48.457Z,-2.68
2017-02-15T07:22:11.004Z,-2.66
2017-02-15T07:23:33.842Z,-2.66
2017-02-15T07:24:56.349Z,-2.6
2017-02-15T07:26:19.372Z,-2.53
2017-02-15T07:27:41.472Z,-2.46
2017-02-15T07:29:04.001Z,-2.32
2017-02-15T07:30:25.313Z,-2.18
2017-02-15T07:31:47.630Z,-2.12
2017-02-15T07:33:09.400Z,-1.95
2017-02-15T07:34:31.371Z,-1.92
2017-02-15T07:35:53.112Z,-1.88
2017-02-15T07:37:14.831Z,-1.88
2017-02-15T07:38:37.463Z,-1.87
2017-02-15T07:39:59.863Z,-1.88
2017-02-15T07:41:21.562Z,-1.87
2017-02-15T07:42:44.594Z,-1.87
2017-02-15T07:44:07.087Z,-1.85
2017-02-15T07:45:30.140Z,-1.74
2017-02-15T07:46:52.879Z,-1.69
2017-02-15T07:48:15.506Z,-1.58
2017-02-15T07:49:37.855Z,-1.58
2017-02-15T07:51:02.791Z,-1.45
2017-02-15T07:52:25.924Z,-1.43
2017-02-15T07:53:50.366Z,-1.4
2017-02-15T07:55:13.837Z,-1.35
2017-02-15T07:56:37.145Z,-1.25
2017-02-15T07:58:00.130Z,-1.1
2017-02-15T07:59:23.313Z,-1.17
2017-02-15T08:00:45.621Z,-0.98
2017-02-15T08:02:06.994Z,-0.92
2017-02-15T08:03:29.562Z,-0.94
2017-02-15T08:04:52.137Z,-0.79
2017-02-15T08:06:15.201Z,-0.73
2017-02-15T08:07:37.544Z,-0.72
2017-02-15T08:08:59.692Z,-0.58
2017-02-15T08:10:21.808Z,-0.49
2017-02-15T08:11:44.107Z,-0.47
2017-02-15T08:13:06.883Z,-0.33
2017-02-15T08:14:29.824Z,-0.26
2017-02-15T08:15:52.080Z,-0.26
2017-02-15T08:17:15.106Z,-0.22
2017-02-15T08:18:37.122Z,-0.1
2017-02-15T08:19:59.229Z,-0.03
2017-02-15T08:21:22.140Z,0.07
2017-02-15T08:22:44.345Z,0.04
2017-02-15T08:24:06.422Z,0.07
2017-02-15T08:25:29.558Z,0.11
2017-02-15T08:26:52.091Z,0.2
2017-02-15T08:28:14.592Z,0.23
2017-02-15T08:29:36.591Z,0.42
2017-02-15T08:30:59.172Z,0.53
2017-02-15T08:32:21.291Z,0.47
2017-02-15T08:33:43.811Z,0.51
2017-02-15T08:35:05.869Z,0.57
2017-02-15T08:36:28.409Z,0.69
2017-02-15T08:37:50.164Z,0.76
2017-02-15T08:39:12.674Z,0.72
2017-02-15T08:40:34.700Z,0.79
2017-02-15T08:41:57.401Z,0.83
2017-02-15T08:43:20.138Z,0.96
2017-02-15T08:44:42.260Z,0.88
2017-02-15T08:46:05.090Z,0.93
2017-02-15T08:47:27.599Z,0.98
2017-02-15T08:48:49.766Z,1.06
2017-02-15T08:50:11.887Z,1.15
2017-02-15T08:51:34.542Z,1.11
2017-02-15T08:52:57.048Z,1.3
2017-02-15T08:54:18.738Z,1.24
2017-02-15T08:55:40.863Z,1.42
2017-02-15T08:57:03.630Z,1.5
2017-02-15T08:58:26.146Z,1.5
2017-02-15T08:59:48.278Z,1.62
2017-02-15T09:01:10.064Z,1.65
2017-02-15T09:02:33.303Z,1.79
2017-02-15T09:03:55.526Z,1.77
2017-02-15T09:05:18.250Z,1.9
2017-02-15T09:06:40.009Z,1.91
2017-02-15T09:08:02.365Z,1.95
2017-02-15T09:09:24.070Z,2.02
2017-02-15T09:10:45.774Z,2.07
2017-02-15T09:12:08.279Z,2.16
2017-02-15T09:13:31.071Z,2.2
2017-02-15T09:14:53.189Z,2.34
2017-02-15T09:16:14.895Z,2.41
2017-02-15T09:17:36.600Z,2.42
2017-02-15T09:18:59.357Z,2.54
2017-02-15T09:20:21.490Z,2.54
2017-02-15T09:21:43.223Z,2.61
2017-02-15T09:23:06.157Z,2.69
2017-02-15T09:24:28.620Z,2.72
2017-02-15T09:25:50.721Z,2.75
2017-02-15T09:27:13.611Z,2.84
2017-02-15T09:28:35.729Z,2.9
2017-02-15T09:29:58.474Z,2.93
2017-02-15T09:31:20.658Z,3.11
2017-02-15T09:32:43.210Z,3.2
2017-02-15T09:34:05.305Z,3.28
2017-02-15T09:35:28.117Z,3.33
2017-02-15T09:36:50.651Z,3.45
2017-02-15T09:38:13.583Z,3.39
2017-02-15T09:39:35.886Z,3.51
2017-02-15T09:40:58.275Z,3.54
2017-02-15T09:42:20.799Z,3.62
2017-02-15T09:43:43.038Z,3.84
2017-02-15T09:45:04.778Z,3.93
2017-02-15T09:46:28.109Z,4.02
2017-02-15T09:47:49.814Z,4.06
2017-02-15T09:49:12.296Z,4.16
2017-02-15T09:50:34.817Z,4.24
2017-02-15T09:51:57.561Z,4.34
2017-02-15T09:53:20.070Z,4.34
2017-02-15T09:54:41.784Z,4.41
2017-02-15T09:56:04.419Z,4.48
2017-02-15T09:57:27.235Z,4.59
2017-02-15T09:58:49.775Z,4.72
2017-02-15T10:00:11.571Z,4.7
2017-02-15T10:01:33.696Z,4.77
2017-02-15T10:02:56.116Z,4.94
2017-02-15T10:04:17.890Z,4.94
2017-02-15T10:05:40.468Z,5.03
2017-02-15T10:07:02.578Z,5.09
2017-02-15T10:08:25.349Z,5.12
2017-02-15T10:09:47.868Z,5.17
2017-02-15T10:11:10.516Z,5.17
2017-02-15T10:12:33.130Z,5.28
2017-02-15T10:13:55.497Z,5.25
2017-02-15T10:15:17.612Z,5.45
2017-02-15T10:16:40.622Z,5.42
2017-02-15T10:18:03.719Z,5.49
2017-02-15T10:19:26.907Z,5.58
2017-02-15T10:20:49.438Z,5.64
2017-02-15T10:22:10.363Z,5.71
2017-02-15T10:23:32.060Z,5.79
2017-02-15T10:24:54.988Z,5.79
2017-02-15T10:26:16.713Z,5.86
2017-02-15T10:27:38.883Z,5.96
2017-02-15T10:29:01.005Z,5.97
2017-02-15T10:30:24.160Z,5.97
2017-02-15T10:31:47.333Z,6.04
2017-02-15T10:33:09.427Z,6.21
2017-02-15T10:34:31.957Z,6.21
2017-02-15T10:35:54.959Z,6.36
2017-02-15T10:37:17.585Z,6.4
2017-02-15T10:38:40.089Z,6.51
2017-02-15T10:40:01.960Z,6.52
2017-02-15T10:41:24.730Z,6.55
2017-02-15T10:42:46.869Z,6.66
2017-02-15T10:44:08.998Z,6.73
2017-02-15T10:45:31.235Z,6.7
2017-02-15T10:46:53.856Z,6.79
2017-02-15T10:48:15.959Z,6.84
2017-02-15T10:49:38.084Z,6.87
2017-02-15T10:51:00.226Z,6.87
2017-02-15T10:52:21.810Z,6.99
2017-02-15T10:53:43.917Z,7.09
2017-02-15T10:55:05.216Z,7.16
2017-02-15T10:56:27.848Z,7.16
2017-02-15T10:57:51.129Z,7.15
2017-02-15T10:59:13.273Z,7.25
2017-02-15T11:00:35.809Z,7.31
2017-02-15T11:01:57.947Z,7.35
2017-02-15T11:03:21.009Z,7.39
2017-02-15T11:04:42.719Z,7.42
2017-02-15T11:06:05.370Z,7.42
2017-02-15T11:07:28.299Z,7.49
2017-02-15T11:08:50.671Z,7.58
2017-02-15T11:10:12.818Z,7.68
2017-02-15T11:11:35.005Z,7.74
2017-02-15T11:12:56.321Z,7.77
2017-02-15T11:14:19.694Z,7.79
2017-02-15T11:15:41.391Z,7.9
2017-02-15T11:17:03.505Z,8.04
2017-02-15T11:18:25.637Z,8.04
2017-02-15T11:19:48.557Z,8.11
2017-02-15T11:21:10.746Z,8.15
2017-02-15T11:22:33.746Z,8.16
2017-02-15T11:24:27.928Z,8.11
2017-02-15T11:25:49.933Z,8.2
2017-02-15T11:27:12.058Z,8.33
2017-02-15T11:28:34.587Z,8.3
2017-02-15T11:29:56.679Z,8.43
2017-02-15T11:31:19.208Z,8.55
2017-02-15T11:32:41.320Z,8.63
2017-02-15T11:34:03.862Z,8.63
2017-02-15T11:35:26.721Z,8.65
2017-02-15T11:36:48.029Z,8.71
2017-02-15T11:38:10.958Z,8.73
2017-02-15T11:39:33.488Z,8.62
2017-02-15T11:40:55.852Z,8.59
2017-02-15T11:42:18.345Z,8.65
2017-02-15T11:43:40.592Z,8.68
2017-02-15T11:45:03.147Z,8.74
2017-02-15T11:46:25.258Z,8.77
2017-02-15T11:47:48.180Z,8.86
2017-02-15T11:49:11.115Z,8.94
2017-02-15T11:50:33.628Z,8.94
2017-02-15T11:51:55.620Z,8.92
2017-02-15T11:53:17.728Z,9.02
2017-02-15T11:54:40.703Z,8.98
2017-02-15T11:56:03.220Z,8.98
2017-02-15T11:57:26.074Z,9.08
2017-02-15T11:58:48.222Z,9.13
2017-02-15T12:00:11.196Z,9.14
2017-02-15T12:01:33.317Z,9.15
2017-02-15T12:02:55.829Z,9.18
2017-02-15T12:04:17.550Z,9.29
2017-02-15T12:05:40.142Z,9.28
2017-02-15T12:07:02.300Z,9.28
2017-02-15T12:08:25.476Z,9.28
2017-02-15T12:09:47.209Z,9.4
2017-02-15T12:11:09.739Z,9.43
2017-02-15T12:12:31.653Z,9.42
2017-02-15T12:13:54.904Z,9.51
2017-02-15T12:15:17.079Z,9.54
2017-02-15T12:16:38.814Z,9.61
2017-02-15T12:17:59.747Z,9.65
2017-02-15T12:19:22.209Z,9.66
2017-02-15T12:20:43.924Z,9.65
2017-02-15T12:22:05.719Z,9.58
2017-02-15T12:23:27.848Z,9.58
2017-02-15T12:24:51.519Z,9.68
2017-02-15T12:26:13.658Z,9.68
2017-02-15T12:27:35.399Z,9.71
2017-02-15T12:28:57.921Z,9.76
2017-02-15T12:30:20.291Z,9.76
2017-02-15T12:31:42.404Z,9.9
2017-02-15T12:33:04.918Z,9.91
2017-02-15T12:34:27.151Z,9.9
2017-02-15T12:35:49.084Z,9.89
2017-02-15T12:37:11.179Z,9.94
2017-02-15T12:38:33.323Z,9.93
2017-02-15T12:39:55.439Z,9.99
2017-02-15T12:41:18.259Z,9.91
2017-02-15T12:42:39.980Z,10.01
2017-02-15T12:44:02.476Z,10.17
2017-02-15T12:45:25.173Z,10.14
2017-02-15T12:46:47.709Z,10.2
2017-02-15T12:48:10.660Z,10.15
2017-02-15T12:49:32.855Z,10.18
2017-02-15T12:50:55.796Z,10.17
2017-02-15T12:52:18.305Z,10.17
2017-02-15T12:53:40.421Z,10.18
2017-02-15T12:55:02.945Z,10.25
2017-02-15T12:56:25.492Z,10.22
2017-02-15T12:57:48.796Z,10.23
2017-02-15T12:59:10.976Z,10.15
2017-02-15T13:00:32.696Z,10.2
2017-02-15T13:01:55.341Z,10.22
2017-02-15T13:03:17.780Z,10.2
2017-02-15T13:04:39.639Z,10.32
2017-02-15T13:06:02.187Z,10.2
2017-02-15T13:07:24.601Z,10.36
2017-02-15T13:08:47.024Z,10.32
2017-02-15T13:10:09.546Z,10.36
2017-02-15T13:11:30.898Z,10.29
2017-02-15T13:12:53.049Z,10.32
2017-02-15T13:14:15.487Z,10.4
2017-02-15T13:15:38.431Z,10.3
2017-02-15T13:17:00.203Z,10.4
2017-02-15T13:18:23.173Z,10.42
2017-02-15T13:19:45.927Z,10.4
2017-02-15T13:21:07.660Z,10.45
2017-02-15T13:22:30.172Z,10.51
2017-02-15T13:23:52.972Z,10.53
2017-02-15T13:25:15.827Z,10.47
2017-02-15T13:26:38.439Z,10.51
2017-02-15T13:28:00.971Z,10.51
2017-02-15T13:29:23.184Z,10.56
2017-02-15T13:30:46.015Z,10.53
2017-02-15T13:32:08.221Z,10.56
2017-02-15T13:33:30.346Z,10.52
2017-02-15T13:34:53.321Z,10.45
2017-02-15T13:36:15.699Z,10.42
2017-02-15T13:37:38.244Z,10.4
2017-02-15T13:39:00.820Z,10.48
2017-02-15T13:40:23.468Z,10.38
2017-02-15T13:41:45.853Z,10.41
2017-02-15T13:43:08.490Z,10.42
2017-02-15T13:44:31.101Z,10.41
2017-02-15T13:45:54.009Z,10.42
2017-02-15T13:47:17.294Z,10.44
2017-02-15T13:48:39.883Z,10.41
2017-02-15T13:50:02.440Z,10.4
2017-02-15T13:51:24.558Z,10.38
2017-02-15T13:52:46.996Z,10.42
2017-02-15T13:54:08.733Z,10.47
2017-02-15T13:55:31.369Z,10.42
2017-02-15T13:56:54.022Z,10.47
2017-02-15T13:58:16.943Z,10.41
2017-02-15T13:59:39.662Z,10.44
2017-02-15T14:01:01.831Z,10.42
2017-02-15T14:02:24.060Z,10.45
2017-02-15T14:03:45.678Z,10.41
2017-02-15T14:05:07.440Z,10.34
2017-02-15T14:06:29.940Z,10.33
2017-02-15T14:07:52.458Z,10.36
2017-02-15T14:09:15.293Z,10.34
2017-02-15T14:10:37.916Z,10.38
2017-02-15T14:12:00.508Z,10.38
2017-02-15T14:13:22.681Z,10.27
2017-02-15T14:14:44.759Z,10.42
2017-02-15T14:16:06.900Z,10.32
2017-02-15T14:17:29.534Z,10.4
2017-02-15T14:18:51.268Z,10.34
2017-02-15T14:20:14.066Z,10.33
2017-02-15T14:21:36.370Z,10.29
2017-02-15T14:22:58.931Z,10.22
2017-02-15T14:24:20.917Z,10.23
2017-02-15T14:25:43.770Z,10.22
2017-02-15T14:27:05.500Z,10.26
2017-02-15T14:28:28.046Z,10.23
2017-02-15T14:29:50.571Z,10.18
2017-02-15T14:31:13.003Z,10.2
2017-02-15T14:32:35.139Z,10.29
2017-02-15T14:33:56.850Z,10.25
2017-02-15T14:35:19.506Z,10.2
2017-02-15T14:36:41.127Z,10.15
2017-02-15T14:38:03.394Z,10.15
2017-02-15T14:39:25.530Z,10.09
2017-02-15T14:40:47.711Z,10.12
2017-02-15T14:42:10.487Z,10.12
2017-02-15T14:43:32.214Z,10.14
2017-02-15T14:44:54.376Z,10.04
2017-02-15T14:46:16.512Z,9.94
2017-02-15T14:47:38.970Z,10.02
2017-02-15T14:49:00.783Z,9.94
2017-02-15T14:50:22.977Z,10.01
2017-02-15T14:51:45.508Z,9.96
2017-02-15T14:53:08.409Z,9.93
2017-02-15T14:54:30.146Z,9.84
2017-02-15T14:55:52.710Z,9.94
2017-02-15T14:57:14.884Z,9.87
2017-02-15T14:58:38.095Z,9.97
2017-02-15T15:00:01.053Z,9.94
2017-02-15T15:01:23.591Z,9.89
2017-02-15T15:02:46.083Z,9.93
2017-02-15T15:04:08.765Z,9.83
2017-02-15T15:05:30.498Z,9.83
2017-02-15T15:06:53.543Z,9.79
2017-02-15T15:08:15.715Z,9.78
2017-02-15T15:09:38.519Z,9.72
2017-02-15T15:11:01.032Z,9.71
2017-02-15T15:12:23.560Z,9.75
2017-02-15T15:13:46.230Z,9.68
2017-02-15T15:15:09.011Z,9.6
2017-02-15T15:16:31.533Z,9.61
2017-02-15T15:17:54.062Z,9.64
2017-02-15T15:19:16.580Z,9.66
2017-02-15T15:20:39.482Z,9.56
2017-02-15T15:22:02.261Z,9.58
2017-02-15T15:23:24.805Z,9.64
2017-02-15T15:24:47.323Z,9.54
2017-02-15T15:26:10.182Z,9.56
2017-02-15T15:27:32.325Z,9.58
2017-02-15T15:28:55.275Z,9.57
2017-02-15T15:30:17.852Z,9.5
2017-02-15T15:31:40.834Z,9.47
2017-02-15T15:33:03.393Z,9.4
2017-02-15T15:34:25.971Z,9.42
2017-02-15T15:35:49.022Z,9.4
2017-02-15T15:37:11.590Z,9.32
2017-02-15T15:38:34.247Z,9.33
2017-02-15T15:39:56.921Z,9.32
2017-02-15T15:41:20.022Z,9.28
2017-02-15T15:42:42.877Z,9.29
2017-02-15T15:44:04.632Z,9.23
2017-02-15T15:45:27.176Z,9.11
2017-02-15T15:46:50.101Z,9.04
2017-02-15T15:48:12.589Z,9.02
2017-02-15T15:49:34.410Z,9.08
2017-02-15T15:50:56.957Z,8.99
2017-02-15T15:52:18.701Z,9.05
2017-02-15T15:53:41.519Z,8.98
2017-02-15T15:55:04.472Z,9.04
2017-02-15T15:56:26.213Z,9.01
2017-02-15T15:57:48.408Z,8.94
2017-02-15T15:59:11.205Z,8.92
2017-02-15T16:00:34.298Z,8.83
2017-02-15T16:01:57.263Z,8.83
2017-02-15T16:03:19.392Z,8.83
2017-02-15T16:04:42.629Z,8.76
2017-02-15T16:06:04.777Z,8.62
2017-02-15T16:07:27.329Z,8.58
2017-02-15T16:08:50.256Z,8.5
2017-02-15T16:10:13.280Z,8.52
2017-02-15T16:11:35.393Z,8.48
2017-02-15T16:12:57.586Z,8.26
2017-02-15T16:14:20.510Z,8.29
2017-02-15T16:15:43.289Z,8.28
2017-02-15T16:17:06.267Z,8.34
2017-02-15T16:18:28.414Z,8.15
2017-02-15T16:19:50.979Z,8.11
2017-02-15T16:21:13.906Z,8.16
2017-02-15T16:22:36.439Z,8.16
2017-02-15T16:23:58.168Z,8.02
2017-02-15T16:25:20.160Z,7.93
2017-02-15T16:26:42.625Z,7.95
2017-02-15T16:28:05.551Z,7.75
2017-02-15T16:29:28.481Z,7.63
2017-02-15T16:30:51.097Z,7.57
2017-02-15T16:32:13.861Z,7.55
2017-02-15T16:33:36.425Z,7.49
2017-02-15T16:34:59.384Z,7.52
2017-02-15T16:36:22.318Z,7.39
2017-02-15T16:37:44.710Z,7.34
2017-02-15T16:39:07.250Z,7.31
2017-02-15T16:40:30.051Z,7.25
2017-02-15T16:41:52.571Z,7.21
2017-02-15T16:43:15.921Z,7.2
2017-02-15T16:44:38.580Z,7.15
2017-02-15T16:46:01.091Z,7.16
2017-02-15T16:47:23.736Z,7.12
2017-02-15T16:48:46.166Z,6.92
2017-02-15T16:50:08.734Z,7.05
2017-02-15T16:51:31.677Z,6.87
2017-02-15T16:52:53.942Z,7.02
2017-02-15T16:54:16.729Z,6.88
2017-02-15T16:55:39.272Z,6.84
2017-02-15T16:57:02.237Z,6.89
2017-02-15T16:58:23.971Z,6.85
2017-02-15T16:59:47.163Z,6.77
2017-02-15T17:01:08.996Z,6.8
2017-02-15T17:02:31.548Z,6.67
2017-02-15T17:03:54.131Z,6.77
2017-02-15T17:05:16.168Z,6.69
2017-02-15T17:06:39.006Z,6.55
2017-02-15T17:08:01.571Z,6.54
2017-02-15T17:09:23.735Z,6.61
2017-02-15T17:10:46.964Z,6.56
2017-02-15T17:12:09.117Z,6.38
2017-02-15T17:13:31.295Z,6.4
2017-02-15T17:14:53.490Z,6.33
2017-02-15T17:16:16.364Z,6.17
2017-02-15T17:17:39.309Z,6.06
2017-02-15T17:19:01.452Z,6.01
2017-02-15T17:20:24.197Z,5.94
2017-02-15T17:21:47.033Z,5.9
2017-02-15T17:23:09.571Z,5.82
2017-02-15T17:24:32.531Z,5.83
2017-02-15T17:25:55.759Z,5.79
2017-02-15T17:27:19.085Z,5.71
2017-02-15T17:28:42.035Z,5.68
2017-02-15T17:30:05.089Z,5.63
2017-02-15T17:31:27.277Z,5.71
2017-02-15T17:32:49.691Z,5.64
2017-02-15T17:34:12.277Z,5.6
2017-02-15T17:35:34.443Z,5.49
2017-02-15T17:36:57.414Z,5.51
2017-02-15T17:38:20.632Z,5.51
2017-02-15T17:39:43.237Z,5.57
2017-02-15T17:41:06.212Z,5.46
2017-02-15T17:42:29.197Z,5.48
2017-02-15T17:43:50.810Z,5.53
2017-02-15T17:45:13.737Z,5.57
2017-02-15T17:46:36.677Z,5.53
2017-02-15T17:47:59.667Z,5.57
2017-02-15T17:49:21.673Z,5.49
2017-02-15T17:50:44.611Z,5.49
2017-02-15T17:52:07.657Z,5.4
2017-02-15T17:53:30.245Z,5.43
2017-02-15T17:54:52.641Z,5.31
2017-02-15T17:56:15.168Z,5.4
2017-02-15T17:57:37.804Z,5.35
2017-02-15T17:59:00.799Z,5.24